South Newton, Pennsylvania
Current Conditions -  °F | °C
As of 9:53 AM on Thursday 23 Oct 2014 (Local Time) from KRYT Reporting Station
Broken Clouds Broken Clouds  
Wind Chill: 53°   Ceiling: 3000
Heat Index: 53°   Visibility: 10mi
Dew Point: 41°   Wind: 7mph
Humidity: 64%   Direction: NA
Pressure: 29.91"   Gusts: 18mph
Location:  40.0726°N, 77.4006°W
Report Text: KRYT 231353Z AUTO VRB06G16KT 10SM BKN030 12/05 A2991 RMK AO2 SLP128 T01170050 $
Loading
Personal Weather Stations






























Interactive Weather Map
Tropical Storm Tracking
New forecast layout! Learn more

10-Day Weather Forecast

Advertisements
Track Severe Weather on mobile